Search for airport 
image banner adimage banner adimage banner ad
image banner ad

36S - Happy Camp

Located in Happy Camp, United States

ICAO - 36S, IATA -

Data provided by Airmate  

General information

Coordinates: N41°47'26" W123°23'20"
Elevation is 1209 feet MSL.
Magnetic variation is 18° East
View others Airports in California

Operational data

Special qualification required
Current time UTC:
Current local time:
Weather at : KCEC - Jack Mc Namara Field ( 70 km )
METAR: KCEC 211156Z AUTO 24003KT 5SM BR OVC003 09/09 A2991 RMK AO2 SLP129 T00890089 10100 20089 53001 $
TAF: KCEC 211143Z 2112/2212 00000KT 3SM BR OVC003 FM211300 VRB02KT 1/2SM FG VV003 TEMPO 2113/2115 1/4SM FG FM211900 19005KT 2SM BR OVC004 FM212300 20005KT 3SM BR BKN004 OVC006 FM220300 18002KT 4SM BR OVC007
View NOTAMs / SUP AIP / TFR affecting this airport [VIEW]
Communications frequencies: [VIEW]

Runways:

RWY identifierQFULength (ft)Width (ft)SurfaceLDA (ft)
04300050ASPH
22300050ASPH

Airport contact information

Address: Happy Camp United States

Satellite view of 36S